Date,TemperatureHighF,TemperatureAvgF,TemperatureLowF,DewpointHighF,DewpointAvgF,DewpointLowF,HumidityHigh,HumidityAvg,HumidityLow,PressureMaxIn,PressureMinIn,WindSpeedMaxMPH,WindSpeedAvgMPH,GustSpeedMaxMPH,PrecipitationSumIn
2013-3-1,33.6,30.3,23.2,26.5,23.6,18.0,84,76,64,30.28,30.15,19,9,0,0.00
2013-3-2,44.4,29.8,18.0,28.1,20.9,12.9,83,71,46,30.31,30.08,7,2,0,0.00
2013-3-3,59.9,43.9,28.0,42.8,33.4,23.5,84,68,53,30.07,29.52,11,5,0,0.00
2013-3-4,51.3,44.0,38.1,41.3,36.8,32.4,85,76,64,30.00,29.46,27,12,0,0.05
2013-3-5,41.7,35.4,28.8,33.5,22.4,16.8,83,59,50,30.33,30.00,29,15,0,0.00
2013-3-6,49.6,35.9,23.5,28.5,22.8,17.3,83,60,43,30.37,30.11,10,4,0,0.00
2013-3-7,68.0,49.5,33.1,35.1,29.7,24.0,73,49,27,30.11,29.91,20,9,0,0.00
2013-3-8,60.4,52.6,44.8,49.4,41.6,32.0,82,67,53,30.02,29.81,22,10,0,0.00
2013-3-9,60.3,55.0,42.3,56.7,16.0,-44.5,95,52,1,29.83,29.47,17,8,0,1.62
2013-3-10,42.3,33.5,28.6,34.3,28.1,22.5,95,81,54,29.98,29.53,34,19,0,0.00
2013-3-11,49.6,34.3,23.4,29.0,22.0,16.5,85,63,36,29.97,29.88,20,9,0,0.00
2013-3-12,52.5,44.3,35.2,38.6,28.9,22.3,88,55,43,30.30,29.95,20,7,0,0.00
2013-3-13,57.6,42.1,24.3,34.1,27.5,16.9,93,59,37,30.39,30.19,13,4,0,0.00
2013-3-14,79.7,54.9,36.9,52.0,41.0,28.0,85,61,37,30.19,29.99,14,5,0,0.00
2013-3-15,81.0,61.1,41.2,56.3,49.0,32.2,95,68,38,30.01,29.61,12,4,0,0.00
2013-3-16,58.5,48.3,38.5,51.4,40.5,31.6,91,75,61,29.90,29.63,25,15,0,0.00
2013-3-17,41.7,38.0,35.2,39.3,33.9,25.2,94,85,61,29.91,29.60,25,9,0,0.00
2013-3-18,57.4,45.0,37.8,39.2,29.4,21.2,94,57,27,29.96,29.66,19,9,0,0.00
2013-3-19,59.5,43.8,30.2,35.3,25.3,19.5,91,51,28,30.20,29.95,13,6,0,0.00
2013-3-20,47.7,36.3,31.3,32.6,24.4,16.4,93,64,32,30.35,29.94,16,5,0,0.00
2013-3-21,49.3,39.8,34.0,32.2,24.1,19.2,92,55,37,29.94,29.63,21,11,0,0.00
2013-3-22,52.5,38.5,31.5,38.4,29.1,-58.4,96,76,1,29.88,29.75,14,8,0,0.00
2013-3-23,36.7,34.3,31.6,34.7,11.6,-58.3,95,50,1,29.87,29.73,21,10,0,0.12
2013-3-24,33.3,29.0,24.4,25.8,11.4,-59.9,98,63,1,30.09,29.81,32,19,0,0.00
2013-3-25,33.4,28.8,23.7,23.5,18.9,17.0,82,67,53,30.32,30.09,26,14,0,0.00
2013-3-26,51.8,29.3,18.0,29.8,21.0,13.5,95,74,42,30.36,30.15,8,2,0,0.00
2013-3-27,67.3,53.3,38.5,41.3,34.9,25.6,67,51,37,30.07,29.99,18,6,0,0.00
2013-3-28,73.6,54.0,35.8,52.1,42.6,32.5,97,68,47,30.09,29.98,9,3,0,0.00
2013-3-29,75.6,61.2,47.3,60.9,52.6,25.0,98,75,41,30.07,29.95,12,4,0,0.00
2013-3-30,81.0,62.2,53.6,64.4,50.0,-43.7,98,70,1,29.95,29.78,16,5,0,0.20
2013-3-31,64.0,54.2,46.8,57.8,45.5,-48.9,98,80,1,29.98,29.85,28,9,0,0.02